Time;durP1;ratioP1;P1;durP2;ratioP2;P2;SDS_P1;SDS_P2;PMS_P1;PMS_P2;Temp;Humidity;BMP_temperature;BMP_pressure;BME280_temperature;BME280_humidity;BME280_pressure;Samples;Min_cycle;Max_cycle;Signal;HPM_P1;HPM_P2
2022/02/26 00:00:11;;;;;;;9.53;3.30;;;-0.30;99.90;;;;;;2096933;28;20643;-67
2022/02/26 00:01:12;;;;;;;5.75;3.22;;;-0.10;99.90;;;;;;2096921;28;20218;-73
2022/02/26 00:02:12;;;;;;;7.20;3.10;;;-0.10;99.90;;;;;;2095995;28;20226;-72
2022/02/26 00:03:13;;;;;;;9.07;3.03;;;-0.20;99.90;;;;;;2088092;28;20168;-72
2022/02/26 00:04:14;;;;;;;6.90;3.03;;;-0.20;99.90;;;;;;2096279;28;20164;-72
2022/02/26 00:05:14;;;;;;;6.57;3.20;;;-0.30;99.90;;;;;;2095730;28;20194;-72
2022/02/26 00:06:15;;;;;;;5.33;3.23;;;-0.20;99.90;;;;;;2096367;28;20572;-72
2022/02/26 00:07:16;;;;;;;6.13;3.20;;;-0.20;99.90;;;;;;2104609;28;20547;-72
2022/02/26 00:08:16;;;;;;;7.73;3.43;;;-0.30;99.90;;;;;;2096224;28;20176;-72
2022/02/26 00:09:17;;;;;;;6.33;3.17;;;-0.40;99.90;;;;;;2088188;28;20176;-72
2022/02/26 00:10:18;;;;;;;7.70;4.63;;;-0.40;99.90;;;;;;2096197;28;20182;-72
2022/02/26 00:11:19;;;;;;;6.80;3.37;;;-0.40;99.90;;;;;;2096334;28;20674;-72
2022/02/26 00:12:19;;;;;;;6.57;3.60;;;-0.30;99.90;;;;;;2096275;28;20176;-72
2022/02/26 00:13:20;;;;;;;5.27;3.27;;;-0.30;99.90;;;;;;2104825;28;20431;-72
2022/02/26 00:14:21;;;;;;;10.30;3.90;;;-0.20;99.90;;;;;;2087964;28;20184;-71
2022/02/26 00:15:22;;;;;;;7.20;3.87;;;-0.10;99.90;;;;;;2079409;28;20652;-72
2022/02/26 00:16:23;;;;;;;6.80;3.58;;;-0.10;99.90;;;;;;2087897;28;20224;-72
2022/02/26 00:17:23;;;;;;;6.57;3.33;;;-0.10;99.90;;;;;;2088245;28;20176;-72
2022/02/26 00:18:24;;;;;;;6.17;3.83;;;0.00;99.90;;;;;;2096388;28;20183;-72
2022/02/26 00:19:25;;;;;;;6.20;3.57;;;0.00;99.90;;;;;;2096910;28;20214;-72
2022/02/26 00:20:26;;;;;;;6.30;3.37;;;0.00;99.90;;;;;;2096966;28;20596;-72
2022/02/26 00:21:26;;;;;;;8.70;3.87;;;0.10;99.90;;;;;;2094646;28;20211;-72
2022/02/26 00:22:27;;;;;;;6.30;4.13;;;0.10;99.90;;;;;;2088576;28;20176;-72
2022/02/26 00:23:28;;;;;;;7.37;4.03;;;0.20;99.90;;;;;;2096201;28;20164;-72
2022/02/26 00:24:28;;;;;;;8.23;3.50;;;0.20;99.90;;;;;;2087791;28;20631;-72
2022/02/26 00:25:29;;;;;;;6.60;3.90;;;0.20;99.90;;;;;;2071184;28;20174;-72
2022/02/26 00:26:30;;;;;;;9.13;3.87;;;0.20;99.90;;;;;;2087840;28;20644;-72
2022/02/26 00:27:30;;;;;;;6.77;3.43;;;0.30;99.90;;;;;;2088761;28;20183;-72
2022/02/26 00:28:31;;;;;;;4.20;2.90;;;0.40;99.90;;;;;;2088725;28;20194;-72
2022/02/26 00:29:35;;;;;;;8.03;3.57;;;0.50;99.90;;;;;;2088110;28;20207;-72
2022/02/26 00:30:36;;;;;;;7.63;3.67;;;0.50;99.90;;;;;;2087948;28;20183;-72
2022/02/26 00:31:36;;;;;;;6.57;3.57;;;0.50;99.90;;;;;;2092099;28;20783;-72
2022/02/26 00:32:37;;;;;;;6.60;3.27;;;0.40;99.90;;;;;;2088072;28;20176;-72
2022/02/26 00:33:38;;;;;;;6.50;3.73;;;0.40;99.90;;;;;;2096448;28;20254;-72
2022/02/26 00:34:39;;;;;;;6.57;3.80;;;0.30;99.90;;;;;;2087924;28;20710;-72
2022/02/26 00:35:41;;;;;;;7.32;3.85;;;0.30;99.90;;;;;;2087424;28;20183;-72
2022/02/26 00:36:42;;;;;;;6.25;3.80;;;0.30;99.90;;;;;;2096457;28;20172;-72
2022/02/26 00:37:43;;;;;;;8.90;3.63;;;0.30;99.90;;;;;;2088192;28;20180;-72
2022/02/26 00:38:44;;;;;;;6.00;3.73;;;0.30;99.90;;;;;;2096413;28;20176;-72
2022/02/26 00:39:44;;;;;;;6.40;4.00;;;0.40;99.90;;;;;;2096135;28;20652;-72
2022/02/26 00:40:45;;;;;;;8.13;4.10;;;0.50;99.90;;;;;;2088187;28;20184;-72
2022/02/26 00:41:46;;;;;;;7.33;3.57;;;0.60;99.90;;;;;;2096411;28;20193;-72
2022/02/26 00:42:47;;;;;;;9.20;4.37;;;0.60;99.90;;;;;;2096449;28;20186;-72
2022/02/26 00:43:47;;;;;;;6.67;3.70;;;0.60;99.90;;;;;;2087984;28;20184;-71
2022/02/26 00:44:48;;;;;;;8.90;3.57;;;0.50;99.90;;;;;;2096410;28;20631;-72
2022/02/26 00:45:49;;;;;;;5.23;3.50;;;0.50;99.90;;;;;;2095535;28;20228;-72
2022/02/26 00:46:49;;;;;;;9.33;4.27;;;0.50;99.90;;;;;;2096404;28;20226;-72
2022/02/26 00:47:50;;;;;;;7.63;3.87;;;0.50;99.90;;;;;;2097090;28;20274;-72
2022/02/26 00:50:11;;;;;;;11.75;4.55;;;0.40;99.90;;;;;;2096612;28;20188;-71
2022/02/26 00:51:11;;;;;;;5.85;3.78;;;0.50;99.90;;;;;;2096354;28;20637;-71
2022/02/26 00:52:17;;;;;;;11.93;4.37;;;0.50;99.90;;;;;;2087996;28;20183;-71
2022/02/26 00:53:18;;;;;;;8.60;4.00;;;0.40;99.90;;;;;;2088832;28;20169;-71
2022/02/26 00:54:19;;;;;;;5.93;3.97;;;0.50;99.90;;;;;;2096332;28;20172;-71
2022/02/26 00:55:19;;;;;;;7.00;3.53;;;0.60;99.90;;;;;;2097246;28;20164;-71
2022/02/26 00:56:20;;;;;;;8.10;3.93;;;0.70;99.90;;;;;;2097667;28;20172;-72
2022/02/26 00:57:21;;;;;;;7.73;4.30;;;0.60;99.90;;;;;;2098381;28;20179;-71
2022/02/26 00:58:22;;;;;;;8.43;4.53;;;0.60;99.90;;;;;;2097577;28;20257;-71
2022/02/26 00:59:22;;;;;;;9.88;4.60;;;0.60;99.90;;;;;;2089551;28;20644;-71
2022/02/26 01:00:23;;;;;;;7.43;4.00;;;0.50;99.90;;;;;;2080910;28;20185;-71
2022/02/26 01:01:24;;;;;;;7.67;4.53;;;0.50;99.90;;;;;;2089389;28;20180;-71
2022/02/26 01:02:24;;;;;;;8.70;4.53;;;0.50;99.90;;;;;;2098297;28;20629;-72
2022/02/26 01:03:25;;;;;;;8.07;4.30;;;0.50;99.90;;;;;;2097691;28;20180;-72
2022/02/26 01:04:26;;;;;;;6.47;4.00;;;0.60;99.90;;;;;;2089159;28;20188;-72
2022/02/26 01:05:26;;;;;;;8.40;4.27;;;0.60;99.90;;;;;;2088941;28;20238;-71
2022/02/26 01:06:27;;;;;;;10.17;4.13;;;0.60;99.90;;;;;;2097614;28;20172;-73
2022/02/26 01:07:28;;;;;;;9.37;4.13;;;0.70;99.90;;;;;;2097982;28;20172;-72
2022/02/26 01:08:28;;;;;;;6.03;3.60;;;0.70;99.90;;;;;;2098482;28;20528;-71
2022/02/26 01:09:29;;;;;;;6.47;3.97;;;0.70;99.90;;;;;;2098524;28;20212;-71
2022/02/26 01:10:30;;;;;;;8.17;4.70;;;0.70;99.90;;;;;;2098347;28;20179;-72
2022/02/26 01:11:31;;;;;;;7.23;4.00;;;0.70;99.90;;;;;;2097768;28;20171;-71
2022/02/26 01:12:32;;;;;;;14.75;5.07;;;0.70;99.90;;;;;;2097598;28;20555;-71
2022/02/26 01:13:33;;;;;;;6.93;4.22;;;0.70;99.90;;;;;;2097753;28;20191;-72
2022/02/26 01:14:35;;;;;;;6.93;3.70;;;0.70;99.90;;;;;;2097620;28;20756;-71
2022/02/26 01:15:36;;;;;;;7.88;4.32;;;0.80;99.90;;;;;;2097157;28;20198;-72
2022/02/26 01:16:37;;;;;;;6.70;4.07;;;0.80;99.90;;;;;;2089147;28;20196;-72
2022/02/26 01:17:38;;;;;;;6.68;4.10;;;0.80;99.90;;;;;;2089489;28;20205;-71
2022/02/26 01:18:39;;;;;;;9.23;4.13;;;0.80;99.90;;;;;;2089219;28;20647;-72
2022/02/26 01:19:40;;;;;;;10.25;4.28;;;0.80;99.90;;;;;;2089313;28;20210;-72
2022/02/26 01:20:41;;;;;;;6.40;3.55;;;0.80;99.90;;;;;;2089103;28;20552;-72
2022/02/26 01:21:43;;;;;;;6.33;4.10;;;0.90;99.90;;;;;;2081049;28;20275;-71
2022/02/26 01:22:44;;;;;;;8.48;4.32;;;1.00;99.90;;;;;;2089428;28;20203;-72
2022/02/26 01:23:45;;;;;;;10.53;4.53;;;0.90;99.90;;;;;;2097737;28;20180;-71
2022/02/26 01:24:46;;;;;;;6.53;4.32;;;0.90;99.90;;;;;;2098064;28;20646;-71
2022/02/26 01:25:46;;;;;;;9.80;4.70;;;0.80;99.90;;;;;;2097563;28;20191;-72
2022/02/26 01:26:47;;;;;;;8.90;4.40;;;0.70;99.90;;;;;;2089061;28;20211;-72
2022/02/26 01:27:48;;;;;;;9.07;4.33;;;0.70;99.90;;;;;;2089200;28;20172;-72
2022/02/26 01:28:49;;;;;;;12.07;4.30;;;0.80;99.90;;;;;;2097994;28;20195;-72
2022/02/26 01:29:50;;;;;;;8.25;4.30;;;0.70;99.90;;;;;;2097493;28;20847;-72
2022/02/26 01:30:51;;;;;;;6.90;4.57;;;0.70;99.90;;;;;;2097535;28;20172;-72
2022/02/26 01:31:51;;;;;;;9.10;4.73;;;0.80;99.90;;;;;;2097945;28;20164;-72
2022/02/26 01:32:52;;;;;;;7.83;4.07;;;0.80;99.90;;;;;;2088991;28;20666;-72
2022/02/26 01:33:53;;;;;;;7.47;4.43;;;0.80;99.90;;;;;;2080741;28;20918;-72
2022/02/26 01:34:53;;;;;;;9.80;4.83;;;0.80;99.90;;;;;;2097494;28;20277;-73
2022/02/26 01:35:54;;;;;;;11.60;4.67;;;0.70;99.90;;;;;;2097395;28;20168;-72
2022/02/26 01:36:55;;;;;;;12.20;5.00;;;0.70;99.90;;;;;;2097946;28;20195;-72
2022/02/26 01:37:55;;;;;;;10.17;4.87;;;0.70;99.90;;;;;;2097883;28;20540;-73
2022/02/26 01:38:56;;;;;;;9.43;4.20;;;0.60;99.90;;;;;;2097936;28;20228;-72
2022/02/26 01:39:57;;;;;;;9.90;4.63;;;0.60;99.90;;;;;;2097408;28;20167;-72
2022/02/26 01:40:58;;;;;;;9.90;5.00;;;0.60;99.90;;;;;;2097578;28;20167;-72
2022/02/26 01:41:59;;;;;;;6.03;4.05;;;0.70;99.90;;;;;;2097371;28;20194;-72
2022/02/26 01:43:00;;;;;;;7.33;4.40;;;0.70;99.90;;;;;;2089257;28;20230;-72
2022/02/26 01:44:01;;;;;;;8.63;4.60;;;0.80;99.90;;;;;;2089117;28;20243;-72
2022/02/26 01:45:14;;;;;;;10.40;4.82;;;0.90;99.90;;;;;;2089320;28;20226;-72
2022/02/26 01:46:14;;;;;;;10.60;4.22;;;0.70;99.90;;;;;;2090826;28;20207;-72
2022/02/26 01:47:15;;;;;;;13.30;5.23;;;0.60;99.90;;;;;;2097583;28;20635;-72
2022/02/26 01:48:16;;;;;;;7.90;4.03;;;0.50;99.90;;;;;;2097954;28;20168;-72
2022/02/26 01:49:17;;;;;;;9.63;4.73;;;0.50;99.90;;;;;;2098173;28;20213;-72
2022/02/26 01:50:17;;;;;;;9.60;4.67;;;0.50;99.90;;;;;;2097975;28;20262;-72
2022/02/26 01:51:19;;;;;;;8.23;4.27;;;0.40;99.90;;;;;;2098216;28;20160;-72
2022/02/26 01:52:21;;;;;;;7.20;3.88;;;0.40;99.90;;;;;;2097521;28;20167;-72
2022/02/26 01:53:22;;;;;;;8.35;4.43;;;0.40;99.90;;;;;;2089299;28;20180;-72
2022/02/26 01:54:22;;;;;;;8.23;4.33;;;0.30;99.90;;;;;;2089317;28;20717;-72
2022/02/26 01:55:25;;;;;;;9.37;4.67;;;0.30;99.90;;;;;;2088457;28;20197;-72
2022/02/26 01:56:26;;;;;;;6.40;4.28;;;0.40;99.90;;;;;;2097290;28;20205;-72
2022/02/26 01:57:27;;;;;;;9.83;5.00;;;0.30;99.90;;;;;;2098116;28;20229;-72
2022/02/26 01:58:27;;;;;;;13.10;5.10;;;0.30;99.90;;;;;;2097839;28;20657;-72
2022/02/26 01:59:28;;;;;;;9.53;4.87;;;0.30;99.90;;;;;;2097355;28;20672;-72
2022/02/26 02:00:29;;;;;;;10.30;5.17;;;0.20;99.90;;;;;;2097227;28;20199;-72
2022/02/26 02:01:30;;;;;;;8.98;4.82;;;0.20;99.90;;;;;;2097313;28;20180;-72
2022/02/26 02:02:31;;;;;;;6.57;4.13;;;0.20;99.90;;;;;;2097231;28;20183;-72
2022/02/26 02:03:33;;;;;;;11.50;4.07;;;0.20;99.90;;;;;;2097972;28;20176;-72
2022/02/26 02:04:34;;;;;;;10.85;4.50;;;0.10;99.90;;;;;;2097685;28;20210;-72
2022/02/26 02:05:34;;;;;;;10.13;4.60;;;0.00;99.90;;;;;;2096794;28;20187;-72
2022/02/26 02:06:35;;;;;;;8.50;5.00;;;0.00;99.90;;;;;;2096363;28;20313;-72
2022/02/26 02:07:36;;;;;;;9.17;4.57;;;0.00;99.90;;;;;;2097418;28;20180;-72
2022/02/26 02:08:37;;;;;;;8.20;4.38;;;-0.10;99.90;;;;;;2088956;28;20184;-72
2022/02/26 02:09:38;;;;;;;8.45;4.38;;;-0.10;99.90;;;;;;2097297;28;20642;-72
2022/02/26 02:10:42;;;;;;;7.70;4.20;;;-0.10;99.90;;;;;;2097664;28;20179;-71
2022/02/26 02:11:44;;;;;;;9.30;5.25;;;-0.20;99.90;;;;;;2097083;28;20724;-72
2022/02/26 02:12:45;;;;;;;8.90;4.45;;;-0.20;99.90;;;;;;2088919;28;20195;-72
2022/02/26 02:13:46;;;;;;;9.10;4.32;;;-0.30;99.90;;;;;;2089054;28;20183;-72
2022/02/26 02:14:47;;;;;;;6.43;4.30;;;-0.30;99.90;;;;;;2095422;28;20220;-72
2022/02/26 02:15:50;;;;;;;7.47;4.63;;;-0.30;99.90;;;;;;2095161;28;20857;-72
2022/02/26 02:16:51;;;;;;;9.23;4.18;;;-0.30;99.90;;;;;;2096895;28;20212;-72
2022/02/26 02:17:51;;;;;;;8.67;4.33;;;-0.40;99.90;;;;;;2097276;28;20230;-72
2022/02/26 02:18:52;;;;;;;7.47;4.37;;;-0.40;99.90;;;;;;2098253;28;20186;-72
2022/02/26 02:19:53;;;;;;;7.90;4.88;;;-0.50;99.90;;;;;;2097868;28;20176;-72
2022/02/26 02:20:56;;;;;;;6.37;3.87;;;-0.50;99.90;;;;;;2097245;28;20179;-72
2022/02/26 02:21:56;;;;;;;10.10;4.43;;;-0.50;99.90;;;;;;2089163;28;20163;-72
2022/02/26 02:22:57;;;;;;;6.57;3.40;;;-0.50;99.90;;;;;;2096951;28;20202;-72
2022/02/26 02:23:58;;;;;;;7.63;4.23;;;-0.60;99.90;;;;;;2096915;28;20175;-72
2022/02/26 02:24:58;;;;;;;10.93;4.67;;;-0.60;99.90;;;;;;2088945;28;20401;-72
2022/02/26 02:26:00;;;;;;;7.77;4.33;;;-0.60;99.90;;;;;;2088408;28;20169;-72
2022/02/26 02:27:02;;;;;;;7.32;4.10;;;-0.60;99.90;;;;;;2097241;28;20187;-72
2022/02/26 02:28:06;;;;;;;9.00;4.30;;;-0.70;99.90;;;;;;2096992;28;20222;-72
2022/02/26 02:29:07;;;;;;;12.00;4.80;;;-0.80;99.90;;;;;;2097377;28;20168;-72
2022/02/26 02:30:09;;;;;;;8.67;4.17;;;-0.80;99.90;;;;;;2105319;28;20262;-72
2022/02/26 02:31:10;;;;;;;8.25;4.25;;;-0.80;99.90;;;;;;2088750;28;20199;-72
2022/02/26 02:32:11;;;;;;;7.80;4.13;;;-0.90;99.90;;;;;;2080357;28;20192;-72
2022/02/26 02:33:11;;;;;;;12.47;4.83;;;-0.90;99.90;;;;;;2088656;28;20670;-72
2022/02/26 02:34:12;;;;;;;8.90;4.30;;;-1.00;99.90;;;;;;2096846;28;20220;-72
2022/02/26 02:35:41;;;;;;;8.80;3.50;;;-1.10;99.90;;;;;;2096434;28;20172;-72
2022/02/26 02:36:47;;;;;;;7.90;4.40;;;-1.10;99.90;;;;;;2092447;28;20183;-72
2022/02/26 02:37:48;;;;;;;7.85;3.55;;;-1.20;99.90;;;;;;2089377;28;20237;-72
2022/02/26 02:38:49;;;;;;;9.80;4.93;;;-1.30;99.90;;;;;;2097037;28;20166;-72
2022/02/26 02:39:50;;;;;;;6.83;3.97;;;-1.30;99.90;;;;;;2097496;28;20214;-72
2022/02/26 02:40:50;;;;;;;8.67;3.63;;;-1.30;99.90;;;;;;2097660;28;20174;-72
2022/02/26 02:41:51;;;;;;;6.70;4.23;;;-1.40;99.90;;;;;;2097531;28;20170;-72
2022/02/26 02:42:53;;;;;;;6.57;3.53;;;-1.30;99.90;;;;;;2096753;28;20574;-72
2022/02/26 02:43:54;;;;;;;7.65;4.05;;;-1.40;99.90;;;;;;2088375;28;20216;-72
2022/02/26 02:44:54;;;;;;;10.37;5.07;;;-1.40;99.90;;;;;;2088589;28;20183;-72
2022/02/26 02:45:56;;;;;;;8.57;4.33;;;-1.40;99.90;;;;;;2096216;28;20171;-72
2022/02/26 02:46:56;;;;;;;7.28;3.75;;;-1.50;99.90;;;;;;2097530;28;20280;-72
2022/02/26 02:47:57;;;;;;;7.83;3.43;;;-1.60;99.90;;;;;;2096766;28;20611;-72
2022/02/26 02:48:58;;;;;;;7.73;3.40;;;-1.50;99.90;;;;;;2096694;28;20167;-72
2022/02/26 02:49:58;;;;;;;10.10;3.50;;;-1.60;99.90;;;;;;2105241;28;20211;-72
2022/02/26 02:50:59;;;;;;;8.60;4.00;;;-1.60;99.90;;;;;;2097389;28;20166;-72
2022/02/26 02:52:01;;;;;;;7.93;3.73;;;-1.70;99.90;;;;;;2097378;28;20174;-72
2022/02/26 02:53:01;;;;;;;9.43;3.65;;;-1.70;99.90;;;;;;2096736;28;20198;-72
2022/02/26 02:54:03;;;;;;;8.57;3.93;;;-1.70;99.90;;;;;;2088591;28;20687;-72
2022/02/26 02:55:06;;;;;;;8.05;3.95;;;-1.80;99.90;;;;;;2088590;28;20191;-72
2022/02/26 02:56:07;;;;;;;12.32;3.80;;;-1.80;99.90;;;;;;2088429;28;20191;-72
2022/02/26 02:57:07;;;;;;;6.83;3.60;;;-1.80;99.90;;;;;;2096820;28;20286;-72
2022/02/26 02:58:08;;;;;;;12.77;3.83;;;-1.80;99.90;;;;;;2096868;28;20178;-72
2022/02/26 02:59:09;;;;;;;11.53;4.43;;;-1.80;99.90;;;;;;2096560;28;20189;-72
2022/02/26 03:00:13;;;;;;;7.32;3.58;;;-1.80;99.90;;;;;;2096777;28;20333;-72
2022/02/26 03:01:14;;;;;;;10.35;4.53;;;-1.90;99.90;;;;;;2096642;28;20181;-72
2022/02/26 03:02:14;;;;;;;6.13;3.60;;;-1.90;99.90;;;;;;2097371;28;20182;-72
2022/02/26 03:03:15;;;;;;;7.57;3.93;;;-2.00;99.90;;;;;;2096729;28;20179;-72
2022/02/26 03:04:16;;;;;;;8.00;3.73;;;-2.00;99.90;;;;;;2088577;28;20608;-72
2022/02/26 03:05:20;;;;;;;9.63;3.87;;;-2.00;99.90;;;;;;2095988;28;20999;-72
2022/02/26 03:06:25;;;;;;;10.35;3.95;;;-2.00;99.90;;;;;;2097452;28;20190;-72
2022/02/26 03:07:25;;;;;;;6.45;3.72;;;-2.00;99.90;;;;;;2097061;28;20169;-72
2022/02/26 03:08:26;;;;;;;6.30;3.60;;;-2.00;99.90;;;;;;2088477;28;20692;-72
2022/02/26 03:09:27;;;;;;;8.10;3.47;;;-2.00;99.90;;;;;;2088292;28;20184;-72
2022/02/26 03:10:28;;;;;;;7.57;4.17;;;-2.00;99.90;;;;;;2088424;28;20234;-72
2022/02/26 03:11:28;;;;;;;5.97;3.37;;;-2.00;99.90;;;;;;2088265;28;20191;-72
2022/02/26 03:12:29;;;;;;;9.57;4.40;;;-2.00;99.90;;;;;;2088475;28;20171;-72
2022/02/26 03:13:30;;;;;;;11.53;4.60;;;-1.90;99.90;;;;;;2096586;28;20226;-72
2022/02/26 03:14:30;;;;;;;8.90;4.60;;;-1.80;99.90;;;;;;2096638;28;20759;-72
2022/02/26 03:15:32;;;;;;;9.87;4.20;;;-1.80;99.90;;;;;;2095913;28;20186;-72
2022/02/26 03:16:33;;;;;;;9.23;5.13;;;-1.70;99.90;;;;;;2096633;28;20186;-72
2022/02/26 03:17:34;;;;;;;9.00;4.37;;;-1.70;99.90;;;;;;2088673;28;20191;-72
2022/02/26 03:18:34;;;;;;;7.20;4.15;;;-1.60;99.90;;;;;;2088365;28;20178;-72
2022/02/26 03:19:35;;;;;;;9.67;4.13;;;-1.70;99.90;;;;;;2088156;28;20219;-72
2022/02/26 03:20:36;;;;;;;8.93;4.47;;;-1.70;99.90;;;;;;2096644;28;20169;-72
2022/02/26 03:21:39;;;;;;;7.30;3.80;;;-1.60;99.90;;;;;;2097037;28;20722;-72
2022/02/26 03:22:40;;;;;;;9.60;4.30;;;-1.60;99.90;;;;;;2097224;28;20183;-72
2022/02/26 03:23:41;;;;;;;8.47;4.13;;;-1.60;99.90;;;;;;2096480;28;20756;-72
2022/02/26 03:24:41;;;;;;;7.60;3.93;;;-1.50;99.90;;;;;;2096620;28;20614;-72
2022/02/26 03:25:42;;;;;;;9.77;4.03;;;-1.50;99.90;;;;;;2096466;28;20545;-72
2022/02/26 03:26:42;;;;;;;10.33;5.17;;;-1.50;99.90;;;;;;2097088;28;20182;-72
2022/02/26 03:27:44;;;;;;;9.40;4.50;;;-1.40;99.90;;;;;;2097037;28;20202;-72
2022/02/26 03:28:45;;;;;;;10.50;4.10;;;-1.40;99.90;;;;;;2097190;28;20171;-72
2022/02/26 03:29:45;;;;;;;7.60;4.10;;;-1.40;99.90;;;;;;2097143;28;20716;-72
2022/02/26 03:30:46;;;;;;;7.00;4.30;;;-1.40;99.90;;;;;;2097111;28;20183;-72
2022/02/26 03:31:47;;;;;;;8.00;4.33;;;-1.30;99.90;;;;;;2097101;28;20187;-72
2022/02/26 03:32:47;;;;;;;9.00;4.47;;;-1.20;99.90;;;;;;2097236;28;20179;-72
2022/02/26 03:33:48;;;;;;;6.00;3.70;;;-1.20;99.90;;;;;;2088149;28;20180;-72
2022/02/26 03:34:50;;;;;;;8.43;4.13;;;-1.10;99.90;;;;;;2088167;28;20182;-72
2022/02/26 03:35:50;;;;;;;7.32;3.92;;;-1.10;99.90;;;;;;2096006;28;20168;-72
2022/02/26 03:36:53;;;;;;;10.33;4.40;;;-1.10;99.90;;;;;;2096269;28;20195;-72
2022/02/26 03:37:54;;;;;;;7.15;3.83;;;-1.10;99.90;;;;;;2088511;28;20179;-72
2022/02/26 03:38:54;;;;;;;8.93;4.33;;;-1.00;99.90;;;;;;2096296;28;20666;-72
2022/02/26 03:39:56;;;;;;;11.50;4.83;;;-1.00;99.90;;;;;;2097146;28;20175;-72
2022/02/26 03:40:56;;;;;;;11.38;4.38;;;-0.90;99.90;;;;;;2096361;28;20175;-72
2022/02/26 03:42:03;;;;;;;12.13;4.70;;;-0.90;99.90;;;;;;2088144;28;20176;-74
2022/02/26 03:43:04;;;;;;;9.77;5.10;;;-0.90;99.90;;;;;;2088891;28;20274;-71
2022/02/26 03:44:05;;;;;;;13.97;5.13;;;-0.80;99.90;;;;;;2088229;28;20623;-71
2022/02/26 03:45:08;;;;;;;11.95;5.00;;;-0.80;99.90;;;;;;2087844;28;20180;-71
2022/02/26 03:46:09;;;;;;;11.80;5.97;;;-0.80;99.90;;;;;;2096813;28;20176;-71
2022/02/26 03:47:10;;;;;;;9.60;4.97;;;-0.80;99.90;;;;;;2096234;28;20790;-71
2022/02/26 03:48:10;;;;;;;10.87;4.60;;;-0.70;99.90;;;;;;2088135;28;20176;-72
2022/02/26 03:49:11;;;;;;;10.10;5.07;;;-0.80;99.90;;;;;;2096397;28;20172;-71
2022/02/26 03:50:12;;;;;;;10.57;4.77;;;-0.80;99.90;;;;;;2088077;28;20175;-71
2022/02/26 03:51:14;;;;;;;9.03;4.63;;;-0.80;99.90;;;;;;2088068;28;20207;-71
2022/02/26 03:52:15;;;;;;;11.82;4.78;;;-0.80;99.90;;;;;;2096527;28;20224;-71
2022/02/26 03:53:15;;;;;;;9.38;4.35;;;-0.80;99.90;;;;;;2088203;28;20234;-71
2022/02/26 03:54:16;;;;;;;7.93;4.37;;;-0.80;99.90;;;;;;2096485;28;20730;-71
2022/02/26 03:55:17;;;;;;;9.77;4.50;;;-0.80;99.90;;;;;;2095815;28;20762;-71
2022/02/26 03:56:17;;;;;;;7.40;4.07;;;-0.80;99.90;;;;;;2088231;28;20226;-71
2022/02/26 03:57:18;;;;;;;9.23;4.77;;;-0.90;99.90;;;;;;2088057;28;20253;-71
2022/02/26 03:58:19;;;;;;;9.57;5.27;;;-0.90;99.90;;;;;;2096478;28;20168;-71
2022/02/26 03:59:20;;;;;;;11.63;5.53;;;-0.90;99.90;;;;;;2096867;28;20707;-72
2022/02/26 04:00:20;;;;;;;11.70;5.47;;;-1.00;99.90;;;;;;2097108;28;20233;-72
2022/02/26 04:01:22;;;;;;;7.50;4.60;;;-1.00;99.90;;;;;;2096390;28;20213;-72
2022/02/26 04:02:23;;;;;;;13.27;5.13;;;-1.00;99.90;;;;;;2088348;28;20215;-72
2022/02/26 04:03:23;;;;;;;10.83;5.07;;;-1.00;99.90;;;;;;2087851;28;20271;-72
2022/02/26 04:04:24;;;;;;;10.70;4.70;;;-0.90;99.90;;;;;;2096415;28;20175;-72
2022/02/26 04:05:25;;;;;;;8.60;4.80;;;-0.90;99.90;;;;;;2096427;28;20186;-72
2022/02/26 04:06:25;;;;;;;8.70;4.80;;;-0.80;99.90;;;;;;2093006;28;20202;-72
2022/02/26 04:07:26;;;;;;;11.90;5.63;;;-0.90;99.90;;;;;;2088697;28;20177;-72
2022/02/26 04:08:28;;;;;;;11.20;5.30;;;-0.80;99.90;;;;;;2088195;28;20772;-72
2022/02/26 04:09:29;;;;;;;8.45;5.15;;;-0.80;99.90;;;;;;2087979;28;20749;-72
2022/02/26 04:10:31;;;;;;;8.57;5.27;;;-0.80;99.90;;;;;;2088804;28;20195;-72
2022/02/26 04:11:32;;;;;;;8.07;4.55;;;-0.80;99.90;;;;;;2088701;28;20180;-72
2022/02/26 04:12:32;;;;;;;7.68;4.47;;;-0.70;99.90;;;;;;2088038;28;20275;-72
2022/02/26 04:13:35;;;;;;;9.43;5.30;;;-0.60;99.90;;;;;;2087693;28;21070;-72
2022/02/26 04:14:36;;;;;;;9.65;5.30;;;-0.60;99.90;;;;;;2096275;28;20188;-72
2022/02/26 04:15:37;;;;;;;8.90;4.40;;;-0.50;99.90;;;;;;2087753;28;20215;-72
2022/02/26 04:16:37;;;;;;;8.47;4.60;;;-0.50;99.90;;;;;;2096292;28;20203;-72
2022/02/26 04:17:38;;;;;;;7.70;4.47;;;-0.40;99.90;;;;;;2096323;28;20758;-72
2022/02/26 04:18:39;;;;;;;9.57;4.53;;;-0.40;99.90;;;;;;2096431;28;20221;-72
2022/02/26 04:19:39;;;;;;;9.13;4.60;;;-0.40;99.90;;;;;;2104536;28;20240;-72
2022/02/26 04:20:40;;;;;;;6.40;4.10;;;-0.30;99.90;;;;;;2096372;28;20171;-72
2022/02/26 04:21:41;;;;;;;8.63;4.63;;;-0.40;99.90;;;;;;2096436;28;20174;-72
2022/02/26 04:22:42;;;;;;;8.77;4.43;;;-0.40;99.90;;;;;;2096953;28;20172;-72
2022/02/26 04:23:42;;;;;;;7.43;4.80;;;-0.40;99.90;;;;;;2096969;28;20172;-72
2022/02/26 04:24:43;;;;;;;7.47;4.63;;;-0.40;99.90;;;;;;2096124;28;20164;-72
2022/02/26 04:25:44;;;;;;;7.30;4.07;;;-0.40;99.90;;;;;;2087499;28;20180;-73
2022/02/26 04:26:44;;;;;;;9.70;5.03;;;-0.50;99.90;;;;;;2096242;28;20192;-72
2022/02/26 04:27:45;;;;;;;9.90;5.20;;;-0.60;99.90;;;;;;2097302;28;20168;-72
2022/02/26 04:28:46;;;;;;;10.10;4.97;;;-0.60;99.90;;;;;;2096241;28;20168;-72
2022/02/26 04:29:47;;;;;;;11.87;5.20;;;-0.50;99.90;;;;;;2097252;28;20202;-72
2022/02/26 04:30:49;;;;;;;9.40;5.10;;;-0.50;99.90;;;;;;2089342;28;20171;-72
2022/02/26 04:31:50;;;;;;;9.75;5.20;;;-0.50;99.90;;;;;;2089813;28;20171;-72
2022/02/26 04:32:51;;;;;;;9.30;4.57;;;-0.50;99.90;;;;;;2089633;28;20770;-72
2022/02/26 04:33:52;;;;;;;10.10;4.93;;;-0.40;99.90;;;;;;2089646;28;20247;-72
2022/02/26 04:34:53;;;;;;;10.32;4.43;;;-0.40;99.90;;;;;;2097784;28;20186;-72
2022/02/26 04:35:53;;;;;;;8.87;4.37;;;-0.40;99.90;;;;;;2097332;28;20183;-72
2022/02/26 04:36:54;;;;;;;6.83;4.40;;;-0.40;99.90;;;;;;2089457;28;20225;-73
2022/02/26 04:37:55;;;;;;;8.30;4.43;;;-0.50;99.90;;;;;;2097924;28;20182;-72
2022/02/26 04:38:55;;;;;;;12.80;4.53;;;-0.60;99.90;;;;;;2097823;28;20583;-72
2022/02/26 04:39:56;;;;;;;9.87;4.63;;;-0.60;99.90;;;;;;2089524;28;20200;-72
2022/02/26 04:40:58;;;;;;;7.23;4.77;;;-0.60;99.90;;;;;;2097610;28;20841;-72
2022/02/26 04:41:59;;;;;;;9.43;5.15;;;-0.60;99.90;;;;;;2097806;28;20187;-72
2022/02/26 04:42:59;;;;;;;15.13;6.50;;;-0.60;99.90;;;;;;2089349;28;20195;-72
2022/02/26 04:44:00;;;;;;;14.03;6.00;;;-0.60;99.90;;;;;;2097873;28;20183;-72
2022/02/26 04:45:01;;;;;;;10.47;5.23;;;-0.60;99.90;;;;;;2098402;28;21045;-72
2022/02/26 04:46:01;;;;;;;8.17;5.23;;;-0.60;99.90;;;;;;2097209;28;20614;-73
2022/02/26 04:47:02;;;;;;;13.07;6.47;;;-0.70;99.90;;;;;;2089354;28;20204;-73
2022/02/26 04:48:04;;;;;;;10.68;5.55;;;-0.70;99.90;;;;;;2097862;28;20183;-72
2022/02/26 04:49:04;;;;;;;10.25;6.25;;;-0.70;99.90;;;;;;2098252;28;20183;-73
2022/02/26 04:50:08;;;;;;;10.23;5.97;;;-0.60;99.90;;;;;;2097835;28;20677;-72
2022/02/26 04:51:09;;;;;;;9.98;5.93;;;-0.60;99.90;;;;;;2097572;28;20270;-72
2022/02/26 04:52:09;;;;;;;11.07;5.13;;;-0.50;99.90;;;;;;2098373;28;20187;-73
2022/02/26 04:53:10;;;;;;;8.53;4.97;;;-0.60;99.90;;;;;;2097702;28;20268;-73
2022/02/26 04:54:13;;;;;;;11.47;5.53;;;-0.60;99.90;;;;;;2089603;28;20215;-73
2022/02/26 04:55:14;;;;;;;9.98;5.38;;;-0.60;99.90;;;;;;2097102;28;20222;-73
2022/02/26 04:56:15;;;;;;;9.20;5.55;;;-0.60;99.90;;;;;;2098365;28;20176;-73
2022/02/26 04:57:15;;;;;;;10.20;5.17;;;-0.60;99.90;;;;;;2098446;28;20199;-73
2022/02/26 04:58:17;;;;;;;9.87;5.03;;;-0.50;99.90;;;;;;2097596;28;20175;-73
2022/02/26 04:59:18;;;;;;;11.10;5.88;;;-0.50;99.90;;;;;;2089381;28;20299;-72
2022/02/26 05:00:18;;;;;;;9.07;4.77;;;-0.50;99.90;;;;;;2097752;28;20763;-73
2022/02/26 05:01:19;;;;;;;9.70;5.07;;;-0.50;99.90;;;;;;2097789;28;20619;-72
2022/02/26 05:02:19;;;;;;;11.03;5.50;;;-0.40;99.90;;;;;;2081063;28;20272;-72
2022/02/26 05:03:20;;;;;;;10.40;5.13;;;-0.40;99.90;;;;;;2089483;28;20246;-73
2022/02/26 05:04:21;;;;;;;10.50;5.37;;;-0.30;99.90;;;;;;2089317;28;20203;-72
2022/02/26 05:05:21;;;;;;;9.30;5.27;;;-0.30;99.90;;;;;;2088866;28;20243;-73
2022/02/26 05:06:23;;;;;;;7.90;4.57;;;-0.40;99.90;;;;;;2098334;28;20217;-72
2022/02/26 05:07:24;;;;;;;7.90;5.00;;;-0.30;99.90;;;;;;2098515;28;20191;-73
2022/02/26 05:08:25;;;;;;;10.02;5.57;;;-0.30;99.90;;;;;;2097643;28;20182;-73
2022/02/26 05:09:26;;;;;;;9.43;6.03;;;-0.30;99.90;;;;;;2089646;28;20188;-73
2022/02/26 05:10:26;;;;;;;8.90;4.63;;;-0.30;99.90;;;;;;2097702;28;20187;-73
2022/02/26 05:11:27;;;;;;;9.30;5.00;;;-0.20;99.90;;;;;;2089494;28;20643;-73
2022/02/26 05:12:28;;;;;;;9.67;5.13;;;-0.20;99.90;;;;;;2073064;28;20292;-72
2022/02/26 05:13:30;;;;;;;8.33;4.70;;;-0.20;99.90;;;;;;2080935;28;20173;-73
2022/02/26 05:14:31;;;;;;;7.40;4.65;;;-0.20;99.90;;;;;;2089425;28;20235;-72
2022/02/26 05:15:32;;;;;;;10.48;5.18;;;-0.20;99.90;;;;;;2097252;28;20165;-73
2022/02/26 05:16:33;;;;;;;10.03;4.53;;;-0.20;99.90;;;;;;2098166;28;20214;-73
2022/02/26 05:17:34;;;;;;;8.47;4.83;;;-0.20;99.90;;;;;;2098423;28;20164;-73
2022/02/26 05:18:34;;;;;;;9.17;5.13;;;-0.20;99.90;;;;;;2089270;28;20635;-72
2022/02/26 05:19:35;;;;;;;9.87;5.03;;;-0.20;99.90;;;;;;2081365;28;20581;-73